Anna, Illinois
Current Conditions -  °F | °C
As of 8:52 AM on Wednesday 22 Oct 2014 (Local Time) from KMDH Reporting Station
Haze Haze  
Wind Chill: 43°   Ceiling: Unl
Heat Index: 45°   Visibility: 5mi
Dew Point: 42°   Wind: 5mph
Humidity: 90%   Direction: 80°E
Pressure: 30.31"   Gusts: NA
Location:  37.46°N, 89.25°W
Report Text: KMDH 221352Z 08004KT 5SM BR CLR 07/06 A3031 RMK AO2 SLP266 T00720056 $
Loading
Personal Weather Stations






























Interactive Weather Map New forecast layout! Learn more

10-Day Weather Forecast

Advertisements
Track Severe Weather on mobile